Terminal Aerodrome Forecast
Issued by NWS Tampa Bay Area, FL

Home | Current Version | Previous Version | Text Only | Print | Product List | Glossary On
Versions: 1 2 3 4 5 6 7 8 9 10 11 12 13 14 15 16
000
FTUS42 KTBW 221700
TAFSRQ
TAF
KSRQ 221730Z 2218/2318 02005KT P6SM FEW100 SCT250
     FM230200 05009KT P6SM SCT250
     FM230800 05013KT P6SM FEW035 SCT250=

USA.gov is the U.S. government's official web portal to all federal, state and local government web resources and services.